Time;durP1;ratioP1;P1;durP2;ratioP2;P2;SDS_P1;SDS_P2;PMS_P1;PMS_P2;Temp;Humidity;BMP_temperature;BMP_pressure;BME280_temperature;BME280_humidity;BME280_pressure;Samples;Min_cycle;Max_cycle;Signal;HPM_P1;HPM_P2
2021/12/05 07:24:40;;;;;;;;;1.00;1.00;;;;;5.03;86.19;99907.91;4976280;28;45398;-84
2021/12/05 07:40:30;;;;;;;;;0.00;0.00;;;;;5.13;87.73;99911.91;4969499;28;45531;-84
2021/12/05 07:43:02;;;;;;;;;0.33;0.33;;;;;5.14;87.10;99913.69;4953295;28;45610;-84
2021/12/05 07:45:35;;;;;;;;;1.67;0.00;;;;;5.13;87.43;99906.69;4954681;28;47308;-84
2021/12/05 07:48:10;;;;;;;;;0.00;0.00;;;;;5.12;87.85;99902.31;4955634;28;45545;-85
2021/12/05 07:51:41;;;;;;;;;2.00;1.00;;;;;5.21;87.90;99911.41;4953868;28;45424;-85
2021/12/05 08:17:41;;;;;;;;;0.00;0.00;;;;;5.61;88.16;99911.75;4977653;28;46411;-85
2021/12/05 08:20:11;;;;;;;;;1.33;0.33;;;;;5.61;88.41;99922.16;4959567;28;45457;-84
2021/12/05 08:22:36;;;;;;;;;0.00;0.00;;;;;5.56;88.02;99899.38;4972389;28;45497;-85
2021/12/05 08:25:10;;;;;;;;;1.00;1.00;;;;;5.64;88.58;99910.19;4972228;28;45482;-84
2021/12/05 08:27:38;;;;;;;;;0.00;0.00;;;;;5.69;89.10;99911.34;4994161;28;46301;-86
2021/12/05 08:30:09;;;;;;;;;3.67;1.00;;;;;5.72;88.78;99920.97;4979125;28;45515;-85
2021/12/05 08:33:13;;;;;;;;;1.33;1.00;;;;;5.75;89.01;99918.53;4969318;28;45360;-84
2021/12/05 08:43:40;;;;;;;;;0.00;0.00;;;;;5.87;88.54;99927.81;4892302;29;45452;-85
2021/12/05 09:22:17;;;;;;;;;1.33;1.33;;;;;6.64;89.33;99944.63;4936054;28;45814;-85
2021/12/05 09:40:35;;;;;;;;;3.00;2.00;;;;;7.07;88.19;99957.91;4984659;28;45402;-84
2021/12/05 10:07:35;;;;;;;;;3.00;1.67;;;;;7.38;88.59;99975.00;4922961;28;45461;-87
2021/12/05 10:10:14;;;;;;;;;2.33;2.33;;;;;7.44;88.80;99956.13;4932224;28;45835;-86
2021/12/05 10:18:44;;;;;;;;;2.00;2.00;;;;;7.78;88.06;99975.03;4927886;28;45892;-87
2021/12/05 10:35:38;;;;;;;;;7.00;7.00;;;;;8.46;88.05;99969.16;4913705;28;45441;-86
2021/12/05 10:38:10;;;;;;;;;14.00;12.00;;;;;8.45;87.60;99959.53;4946559;28;46361;-86
2021/12/05 10:40:56;;;;;;;;;15.00;11.00;;;;;8.37;87.26;99950.50;4965924;28;45514;-87
2021/12/05 10:43:24;;;;;;;;;12.00;10.67;;;;;8.29;87.48;99944.94;4986726;28;45227;-88
2021/12/05 10:45:53;;;;;;;;;7.00;6.67;;;;;8.21;87.21;99960.31;4967851;28;47201;-88
2021/12/05 10:48:23;;;;;;;;;9.00;9.00;;;;;8.15;86.42;99960.94;4976377;28;48959;-88
2021/12/05 10:50:56;;;;;;;;;17.00;12.00;;;;;8.08;87.42;99945.81;4971898;28;45469;-88
2021/12/05 10:53:53;;;;;;;;;7.00;6.00;;;;;8.15;87.92;99953.09;4952603;28;45979;-88
2021/12/05 10:56:18;;;;;;;;;12.33;8.67;;;;;8.19;87.35;99950.59;4967654;28;45804;-88
2021/12/05 10:59:18;;;;;;;;;18.33;11.67;;;;;8.14;87.04;99946.06;4975502;28;45929;-89
2021/12/05 11:01:47;;;;;;;;;12.00;10.67;;;;;8.14;87.30;99946.06;4966303;28;45498;-87
2021/12/05 11:04:15;;;;;;;;;9.33;7.67;;;;;8.18;87.37;99946.19;4978833;28;45525;-88
2021/12/05 11:06:52;;;;;;;;;13.00;10.33;;;;;8.14;87.08;99937.34;4962641;28;45386;-88
2021/12/05 11:09:35;;;;;;;;;10.33;8.67;;;;;8.19;87.47;99945.38;4977987;28;45770;-88
2021/12/05 11:12:03;;;;;;;;;13.00;13.00;;;;;8.18;87.99;99938.34;4961793;28;45388;-89
2021/12/05 11:14:39;;;;;;;;;17.00;16.33;;;;;8.14;88.08;99940.84;4987496;28;45466;-89
2021/12/05 11:17:17;;;;;;;;;11.33;9.00;;;;;8.08;87.67;99942.31;4977119;28;45635;-92
2021/12/05 11:19:58;;;;;;;;;15.50;12.75;;;;;7.88;87.04;99930.19;4978776;28;47127;-92
2021/12/05 11:22:27;;;;;;;;;13.00;11.67;;;;;7.74;87.19;99915.59;4973417;28;45407;-90
2021/12/05 11:25:06;;;;;;;;;4.00;4.00;;;;;7.80;87.47;99947.25;5004973;28;45724;-91
2021/12/05 11:27:34;;;;;;;;;7.33;6.33;;;;;7.80;87.51;99955.06;4997929;28;45384;-92
2021/12/05 11:30:30;;;;;;;;;14.75;14.75;;;;;7.73;87.10;99953.91;5002303;28;45387;-92
2021/12/05 11:33:19;;;;;;;;;7.67;7.67;;;;;7.68;86.73;99952.84;4978308;28;45300;-90
2021/12/05 11:35:59;;;;;;;;;7.00;4.67;;;;;7.60;87.76;99958.56;4975166;28;45269;-91
2021/12/05 11:38:31;;;;;;;;;8.00;7.00;;;;;7.60;88.27;99963.81;4977528;28;44753;-90
2021/12/05 11:41:02;;;;;;;;;4.33;4.33;;;;;7.60;87.85;99962.94;4979748;28;45358;-88
2021/12/05 11:43:51;;;;;;;;;6.00;2.00;;;;;7.54;87.41;99973.09;5003334;28;45279;-89
2021/12/05 11:46:17;;;;;;;;;6.00;4.00;;;;;7.45;87.14;99984.91;4976686;28;45456;-88
2021/12/05 11:48:44;;;;;;;;;3.67;3.67;;;;;7.36;87.73;99988.00;4981665;28;45338;-89
2021/12/05 11:51:20;;;;;;;;;3.00;3.00;;;;;7.28;87.41;99986.75;4981159;28;45426;-91
2021/12/05 11:53:50;;;;;;;;;3.00;3.00;;;;;7.19;87.50;100002.00;4959946;28;46806;-89
2021/12/05 11:56:21;;;;;;;;;1.33;1.33;;;;;7.12;87.70;100001.69;4984714;28;45539;-90
2021/12/05 11:59:01;;;;;;;;;1.00;1.00;;;;;7.08;87.61;100006.69;4969568;28;45298;-90
2021/12/05 12:01:34;;;;;;;;;6.33;3.00;;;;;7.06;87.53;100004.00;4972588;28;46062;-88
2021/12/05 12:03:59;;;;;;;;;6.00;2.00;;;;;7.08;87.25;100010.19;4971496;28;45667;-88
2021/12/05 12:06:24;;;;;;;;;3.33;3.33;;;;;7.09;87.49;100006.75;4947822;28;45518;-88
2021/12/05 12:08:52;;;;;;;;;3.00;3.00;;;;;7.12;87.91;100004.28;4956156;28;45377;-87
2021/12/05 12:11:17;;;;;;;;;6.00;2.33;;;;;7.24;87.90;99993.53;4991616;28;47670;-90
2021/12/05 12:13:43;;;;;;;;;5.00;4.67;;;;;7.31;87.56;100004.28;4976280;28;45628;-92
2021/12/05 12:16:12;;;;;;;;;3.33;3.33;;;;;7.32;87.76;99993.88;4957103;28;45478;-87
2021/12/05 12:18:40;;;;;;;;;3.00;3.00;;;;;7.34;87.04;99997.50;4952819;28;45542;-87
2021/12/05 12:21:19;;;;;;;;;3.00;3.00;;;;;7.31;87.51;100001.66;4972817;28;46511;-89
2021/12/05 12:23:50;;;;;;;;;1.33;1.33;;;;;7.19;86.36;99997.63;4971990;28;45586;-86
2021/12/05 12:26:16;;;;;;;;;4.00;3.00;;;;;7.09;86.77;100006.75;4971748;28;45418;-86
2021/12/05 12:28:42;;;;;;;;;2.00;1.00;;;;;7.00;86.34;100008.94;4955424;28;45411;-86
2021/12/05 12:31:15;;;;;;;;;2.33;2.33;;;;;6.85;86.79;100002.16;4950937;28;47328;-86
2021/12/05 12:33:54;;;;;;;;;7.67;4.33;;;;;6.82;87.55;100015.94;4973336;28;45675;-86
2021/12/05 12:36:42;;;;;;;;;6.67;6.00;;;;;6.80;87.36;100009.75;4988747;28;45405;-85
2021/12/05 12:39:16;;;;;;;;;5.67;1.67;;;;;6.87;87.73;100020.50;4960077;28;45351;-84
2021/12/05 12:42:03;;;;;;;;;3.00;3.00;;;;;6.85;87.58;100014.31;4979295;28;46514;-87
2021/12/05 12:44:29;;;;;;;;;3.00;3.00;;;;;6.90;87.52;100018.94;4971274;28;45361;-85
2021/12/05 12:46:57;;;;;;;;;4.33;4.00;;;;;7.06;88.47;100027.47;4973495;28;45488;-87
2021/12/05 12:49:30;;;;;;;;;6.00;6.00;;;;;7.11;87.89;100030.34;4963811;28;45296;-87
2021/12/05 12:51:59;;;;;;;;;7.00;3.33;;;;;7.09;86.66;100027.63;4970655;28;48764;-87
2021/12/05 12:54:44;;;;;;;;;8.00;8.00;;;;;7.10;87.35;100034.66;4974804;28;45867;-88
2021/12/05 12:57:13;;;;;;;;;4.67;4.67;;;;;7.28;88.09;100035.44;4993171;28;45502;-87
2021/12/05 12:59:55;;;;;;;;;14.00;10.00;;;;;7.52;88.07;100034.81;4987859;28;45446;-87
2021/12/05 13:02:29;;;;;;;;;9.33;6.67;;;;;7.75;88.47;100038.50;4965826;28;46946;-85
2021/12/05 13:05:19;;;;;;;;;9.33;7.00;;;;;7.93;88.50;100033.19;4967889;28;45538;-87
2021/12/05 13:10:35;;;;;;;;;6.33;6.33;;;;;8.21;87.89;100037.84;4994739;28;45197;-88
2021/12/05 13:13:15;;;;;;;;;8.00;4.00;;;;;8.24;87.21;100033.66;4992110;28;45413;-87
2021/12/05 13:15:52;;;;;;;;;7.00;7.00;;;;;8.21;86.45;100045.69;4997881;28;45275;-86
2021/12/05 13:18:26;;;;;;;;;8.00;7.00;;;;;8.15;87.23;100044.59;4981516;28;44942;-87
2021/12/05 13:20:58;;;;;;;;;12.67;9.67;;;;;8.30;87.52;100034.75;4981972;28;45555;-86
2021/12/05 13:23:47;;;;;;;;;5.67;5.67;;;;;8.33;87.46;100032.22;4975232;28;48613;-87
2021/12/05 13:26:35;;;;;;;;;6.67;6.67;;;;;8.47;87.77;100051.16;4985023;28;45558;-88
2021/12/05 13:29:20;;;;;;;;;7.00;7.00;;;;;8.46;86.33;100047.63;4957873;28;45488;-87
2021/12/05 13:31:49;;;;;;;;;7.67;6.00;;;;;8.43;86.51;100054.44;4986283;28;45450;-87
2021/12/05 13:34:24;;;;;;;;;6.67;6.00;;;;;8.43;87.16;100057.06;4978337;28;46708;-87
2021/12/05 13:36:58;;;;;;;;;6.00;4.00;;;;;8.45;87.36;100050.19;4976479;28;45433;-87
2021/12/05 13:39:40;;;;;;;;;7.33;6.00;;;;;8.44;87.14;100053.63;4975414;28;45611;-88
2021/12/05 13:42:13;;;;;;;;;9.00;8.00;;;;;8.43;87.06;100051.81;4959569;28;45603;-88
2021/12/05 13:45:04;;;;;;;;;7.33;7.33;;;;;8.45;87.23;100058.91;4957997;28;48005;-88
2021/12/05 13:47:45;;;;;;;;;5.67;4.00;;;;;8.49;87.37;100066.09;4956229;28;45485;-87
2021/12/05 13:50:16;;;;;;;;;4.00;4.00;;;;;8.49;87.62;100066.09;4974117;28;46208;-88
2021/12/05 13:52:45;;;;;;;;;4.33;3.00;;;;;8.46;87.30;100068.56;4954691;28;45381;-87
2021/12/05 13:55:44;;;;;;;;;4.00;4.00;;;;;8.42;87.35;100064.03;4968442;28;46344;-88
2021/12/05 13:58:32;;;;;;;;;6.33;6.33;;;;;8.36;86.95;100067.28;4969472;28;45296;-87
2021/12/05 14:00:57;;;;;;;;;9.00;6.67;;;;;8.35;87.10;100075.06;4969066;28;45327;-87
2021/12/05 14:03:41;;;;;;;;;12.33;12.00;;;;;8.33;85.66;100079.31;4958447;28;45633;-87
2021/12/05 14:06:24;;;;;;;;;12.00;8.00;;;;;8.29;87.24;100080.00;4966097;28;45581;-87
2021/12/05 14:08:52;;;;;;;;;7.00;3.33;;;;;8.24;86.50;100067.63;4951642;28;45419;-88
2021/12/05 14:11:18;;;;;;;;;4.00;2.67;;;;;8.29;86.73;100074.78;4948192;28;45524;-88
2021/12/05 14:13:43;;;;;;;;;6.00;6.00;;;;;8.30;86.85;100085.28;4979741;28;45423;-87
2021/12/05 14:16:09;;;;;;;;;6.00;6.00;;;;;8.25;87.30;100073.75;4960635;28;47125;-88
2021/12/05 14:18:34;;;;;;;;;15.33;12.00;;;;;8.22;87.29;100082.34;4976336;28;45613;-88
2021/12/05 14:21:13;;;;;;;;;14.00;12.67;;;;;8.20;86.81;100086.63;4954155;28;46140;-88
2021/12/05 14:23:39;;;;;;;;;10.33;9.67;;;;;8.12;87.05;100086.28;4977598;28;45482;-87
2021/12/05 14:26:17;;;;;;;;;14.33;11.67;;;;;8.01;85.35;100090.13;4960744;28;48297;-87
2021/12/05 14:28:43;;;;;;;;;6.00;6.00;;;;;7.93;86.22;100087.19;4942817;28;45476;-86
2021/12/05 14:31:08;;;;;;;;;4.67;4.67;;;;;7.86;86.80;100096.44;4962888;28;45426;-87
2021/12/05 14:33:51;;;;;;;;;6.00;4.67;;;;;7.85;86.48;100105.13;4951949;28;45658;-86
2021/12/05 14:36:26;;;;;;;;;4.00;4.00;;;;;7.80;87.21;100112.75;4967436;28;47103;-87
2021/12/05 14:39:17;;;;;;;;;5.33;3.33;;;;;7.85;87.19;100109.44;4951862;28;45494;-86
2021/12/05 14:41:44;;;;;;;;;8.00;4.00;;;;;7.92;87.31;100116.75;4964094;28;45585;-87
2021/12/05 14:44:10;;;;;;;;;3.00;3.00;;;;;7.93;87.39;100121.16;4954511;28;45322;-87
2021/12/05 14:46:50;;;;;;;;;4.67;3.00;;;;;7.98;87.04;100117.03;4972034;28;45631;-87
2021/12/05 14:49:17;;;;;;;;;8.33;4.00;;;;;7.96;86.99;100130.84;4977353;28;45474;-87
2021/12/05 14:51:44;;;;;;;;;4.00;4.00;;;;;7.93;87.03;100136.84;4962040;28;45560;-87
2021/12/05 14:54:09;;;;;;;;;6.00;6.00;;;;;7.91;87.14;100143.72;4968291;28;45362;-87
2021/12/05 14:56:39;;;;;;;;;7.00;4.00;;;;;7.90;87.21;100134.97;4972220;28;45604;-87
2021/12/05 14:59:10;;;;;;;;;8.33;5.33;;;;;7.90;87.33;100126.22;4947851;28;45806;-87
2021/12/05 15:01:39;;;;;;;;;4.00;4.00;;;;;8.01;87.42;100150.25;4987483;28;45471;-86
2021/12/05 15:04:06;;;;;;;;;5.67;4.00;;;;;8.02;87.09;100154.63;4990548;28;45376;-86
2021/12/05 15:06:44;;;;;;;;;3.33;3.33;;;;;8.01;87.09;100148.53;4969368;28;48560;-87
2021/12/05 15:09:23;;;;;;;;;6.00;4.00;;;;;8.00;87.40;100151.97;4942570;28;45583;-87
2021/12/05 15:11:58;;;;;;;;;3.00;3.00;;;;;8.02;87.49;100160.78;4966844;28;45554;-85
2021/12/05 15:14:25;;;;;;;;;6.00;4.00;;;;;7.92;87.37;100145.47;4944552;28;45631;-87
2021/12/05 15:16:53;;;;;;;;;3.00;3.00;;;;;7.94;87.07;100162.13;4964364;28;47348;-87
2021/12/05 15:19:19;;;;;;;;;3.33;3.33;;;;;7.93;86.34;100163.88;4982360;28;46338;-86
2021/12/05 15:21:45;;;;;;;;;7.67;7.00;;;;;7.85;86.69;100166.94;4959202;28;45693;-87
2021/12/05 15:24:15;;;;;;;;;4.00;4.00;;;;;7.85;86.73;100170.44;4953268;28;45593;-86
2021/12/05 15:26:40;;;;;;;;;3.00;3.00;;;;;7.71;86.79;100172.38;4978120;28;45509;-86
2021/12/05 15:29:06;;;;;;;;;6.00;6.00;;;;;7.78;86.98;100189.28;4979925;28;45544;-87
2021/12/05 15:31:34;;;;;;;;;6.00;6.00;;;;;7.71;87.01;100199.41;4982400;28;45493;-87
2021/12/05 15:34:00;;;;;;;;;7.33;7.33;;;;;7.75;87.44;100210.03;4981621;28;45544;-87
2021/12/05 15:36:34;;;;;;;;;13.00;8.00;;;;;7.70;87.58;100205.47;4979439;28;45634;-87
2021/12/05 15:39:19;;;;;;;;;9.33;9.00;;;;;7.71;87.43;100209.88;4961947;28;45575;-87
2021/12/05 15:41:45;;;;;;;;;9.67;7.00;;;;;7.70;87.11;100212.41;4951727;28;45680;-88
2021/12/05 15:44:30;;;;;;;;;6.00;3.67;;;;;7.70;87.03;100222.88;4980401;28;45378;-87
2021/12/05 15:47:01;;;;;;;;;11.33;9.33;;;;;7.64;87.10;100223.47;4962876;28;50152;-87
2021/12/05 15:49:28;;;;;;;;;7.67;6.67;;;;;7.65;86.94;100238.31;4936955;28;45495;-90
2021/12/05 15:52:00;;;;;;;;;9.00;8.00;;;;;7.56;87.16;100236.13;4957725;28;45391;-87
2021/12/05 15:54:26;;;;;;;;;6.67;6.00;;;;;7.57;87.22;100248.38;4969765;28;45475;-89
2021/12/05 15:57:10;;;;;;;;;6.67;5.33;;;;;7.55;86.83;100256.97;4984046;28;47121;-88
2021/12/05 15:59:39;;;;;;;;;8.33;6.33;;;;;7.54;86.98;100269.13;4953860;28;45367;-88
2021/12/05 16:02:08;;;;;;;;;4.67;4.67;;;;;7.51;87.13;100262.84;4961148;28;45669;-87
2021/12/05 16:04:33;;;;;;;;;9.00;9.00;;;;;7.46;87.42;100266.13;4947770;28;45724;-87
2021/12/05 16:07:00;;;;;;;;;12.00;12.00;;;;;7.57;87.42;100284.97;4950874;28;47247;-87
2021/12/05 16:09:27;;;;;;;;;13.67;13.67;;;;;7.55;87.01;100290.94;4974104;28;45808;-87
2021/12/05 16:12:07;;;;;;;;;12.67;11.67;;;;;7.57;87.23;100295.41;4977482;28;45642;-87
2021/12/05 16:14:37;;;;;;;;;9.67;9.67;;;;;7.57;87.11;100298.03;4969062;28;45529;-87
2021/12/05 16:17:28;;;;;;;;;15.33;12.33;;;;;7.56;87.49;100301.44;4969649;28;45750;-87
2021/12/05 16:20:17;;;;;;;;;11.00;9.00;;;;;7.55;87.07;100299.63;4975718;28;45690;-87
2021/12/05 16:22:56;;;;;;;;;7.00;7.00;;;;;7.57;87.54;100320.63;4979256;28;45522;-87
2021/12/05 16:25:23;;;;;;;;;8.67;8.67;;;;;7.57;87.22;100321.53;4982992;28;45580;-86
2021/12/05 16:28:05;;;;;;;;;19.00;10.00;;;;;7.59;87.57;100316.38;4977693;28;45881;-87
2021/12/05 16:30:39;;;;;;;;;12.33;9.67;;;;;7.58;87.17;100312.84;4977753;28;46817;-87
2021/12/05 16:33:06;;;;;;;;;10.00;10.00;;;;;7.58;87.08;100319.78;4947283;28;45704;-86
2021/12/05 16:35:38;;;;;;;;;10.00;7.67;;;;;7.59;87.13;100319.88;4969428;28;51945;-86
2021/12/05 16:38:25;;;;;;;;;9.00;8.33;;;;;7.59;87.24;100321.59;4979078;28;46039;-86
2021/12/05 16:41:07;;;;;;;;;7.00;7.00;;;;;7.62;87.02;100334.81;4977077;28;45613;-86
2021/12/05 16:43:34;;;;;;;;;13.33;11.67;;;;;7.55;87.37;100330.97;4970387;28;45422;-88
2021/12/05 16:46:14;;;;;;;;;12.00;9.67;;;;;7.58;87.51;100345.91;4955755;28;45424;-89
2021/12/05 16:48:44;;;;;;;;;14.67;12.00;;;;;7.57;87.13;100336.31;4974606;28;46579;-89
2021/12/05 16:51:11;;;;;;;;;12.33;9.67;;;;;7.55;86.77;100333.59;4964930;28;45502;-88
2021/12/05 16:53:43;;;;;;;;;10.33;8.00;;;;;7.58;87.09;100343.28;4962309;28;45671;-88
2021/12/05 16:56:11;;;;;;;;;12.00;9.33;;;;;7.62;86.98;100350.50;4972016;28;45594;-88
2021/12/05 16:58:38;;;;;;;;;14.33;11.67;;;;;7.57;87.07;100349.34;4958299;28;47500;-88
2021/12/05 17:01:04;;;;;;;;;13.25;13.25;;;;;7.65;86.97;100352.38;4970119;28;45549;-88
2021/12/05 17:03:30;;;;;;;;;18.33;12.33;;;;;7.59;86.97;100348.63;4963224;28;45390;-88
2021/12/05 17:06:04;;;;;;;;;14.00;11.33;;;;;7.62;86.48;100350.50;4952051;28;45662;-88
2021/12/05 17:08:34;;;;;;;;;15.25;13.00;;;;;7.66;86.37;100356.75;4968892;28;45466;-88
2021/12/05 17:11:12;;;;;;;;;9.67;8.00;;;;;7.68;86.18;100369.06;4958089;28;45780;-88
2021/12/05 17:13:48;;;;;;;;;11.67;11.67;;;;;7.70;86.22;100377.00;4954609;28;45472;-88
2021/12/05 17:16:19;;;;;;;;;10.00;10.00;;;;;7.68;85.99;100376.91;4970497;28;45660;-87
2021/12/05 17:19:09;;;;;;;;;10.33;7.67;;;;;7.66;85.93;100386.38;4952104;28;47590;-88
2021/12/05 17:21:38;;;;;;;;;11.33;10.67;;;;;7.66;85.54;100377.66;4964387;28;45542;-87
2021/12/05 17:24:12;;;;;;;;;11.33;9.67;;;;;7.63;85.42;100377.53;4951093;28;45505;-88
2021/12/05 17:26:42;;;;;;;;;13.00;9.00;;;;;7.63;86.04;100383.63;4950764;28;45560;-88
2021/12/05 17:29:09;;;;;;;;;13.33;11.67;;;;;7.59;86.18;100379.06;4966085;28;46207;-86
2021/12/05 17:31:43;;;;;;;;;11.33;11.33;;;;;7.60;86.22;100380.88;4976190;28;45406;-86
2021/12/05 17:34:13;;;;;;;;;9.67;9.67;;;;;7.64;86.12;100394.97;4953402;28;45459;-86
2021/12/05 17:36:42;;;;;;;;;12.67;12.33;;;;;7.63;86.69;100387.97;4966710;28;48965;-86
2021/12/05 17:39:17;;;;;;;;;10.67;10.67;;;;;7.68;86.54;100404.78;4976164;28;45347;-86
2021/12/05 17:41:45;;;;;;;;;10.67;9.67;;;;;7.69;86.58;100401.31;4977310;28;45411;-87
2021/12/05 17:44:11;;;;;;;;;19.75;16.50;;;;;7.53;86.53;100377.03;4974772;28;45688;-87
2021/12/05 17:46:38;;;;;;;;;14.25;13.75;;;;;7.71;86.12;100407.53;4978057;28;45564;-86
2021/12/05 17:49:08;;;;;;;;;16.50;14.75;;;;;7.70;85.92;100401.44;4973234;28;46170;-87
2021/12/05 17:51:37;;;;;;;;;18.75;16.00;;;;;7.71;86.18;100410.13;4963191;28;52042;-86
2021/12/05 17:54:07;;;;;;;;;17.00;17.00;;;;;7.68;86.34;100402.16;4975706;28;45608;-86
2021/12/05 17:56:42;;;;;;;;;16.67;16.67;;;;;7.69;86.05;100404.84;4966167;28;45607;-86
2021/12/05 17:59:24;;;;;;;;;27.25;16.50;;;;;7.67;85.78;100406.50;4974198;28;45536;-87
2021/12/05 18:04:36;;;;;;;;;15.50;15.50;;;;;7.72;85.96;100419.78;4988778;28;45371;-87
2021/12/05 18:07:01;;;;;;;;;15.25;13.00;;;;;7.71;86.11;100417.97;4975703;28;45475;-87
2021/12/05 18:09:27;;;;;;;;;17.75;12.75;;;;;7.73;85.92;100418.06;4961842;28;47325;-87
2021/12/05 18:11:53;;;;;;;;;15.00;11.33;;;;;7.76;86.19;100426.03;4961631;28;45554;-87
2021/12/05 18:14:19;;;;;;;;;15.67;12.33;;;;;7.77;85.90;100425.25;4972808;28;45517;-87
2021/12/05 18:16:44;;;;;;;;;14.00;14.00;;;;;7.75;86.34;100419.03;4979645;28;45411;-86
2021/12/05 18:19:17;;;;;;;;;13.33;12.00;;;;;7.79;85.84;100434.03;4956395;28;47282;-86
2021/12/05 18:21:45;;;;;;;;;11.00;10.67;;;;;7.80;86.40;100435.84;4964108;28;45750;-86
2021/12/05 18:24:14;;;;;;;;;14.00;10.67;;;;;7.73;86.18;100428.53;4957838;28;45691;-87
2021/12/05 18:26:41;;;;;;;;;18.00;14.67;;;;;7.76;85.65;100436.50;4977366;28;45552;-86
2021/12/05 18:29:08;;;;;;;;;15.00;12.67;;;;;7.78;85.61;100448.81;4976555;28;46654;-87
2021/12/05 18:31:36;;;;;;;;;15.00;14.50;;;;;7.79;85.77;100450.63;4957700;28;45872;-86
2021/12/05 18:34:09;;;;;;;;;14.50;9.50;;;;;7.79;85.94;100453.25;4969256;28;45955;-85
2021/12/05 18:36:39;;;;;;;;;16.00;14.25;;;;;7.78;85.52;100451.44;4958508;28;45509;-87
2021/12/05 18:39:11;;;;;;;;;16.50;16.25;;;;;7.78;86.08;100454.03;4963401;28;47109;-85
2021/12/05 18:41:38;;;;;;;;;19.50;15.00;;;;;7.81;86.00;100453.31;4973322;28;45481;-86
2021/12/05 18:44:12;;;;;;;;;16.50;15.50;;;;;7.82;85.88;100461.25;4961000;28;45534;-86
2021/12/05 18:46:38;;;;;;;;;14.67;14.00;;;;;7.77;85.30;100460.13;4975613;28;45481;-86
2021/12/05 18:49:04;;;;;;;;;18.50;17.25;;;;;7.81;85.52;100474.22;4979421;28;45653;-86
2021/12/05 18:51:30;;;;;;;;;21.50;17.50;;;;;7.83;85.65;100470.00;4959144;28;45560;-86
2021/12/05 18:53:56;;;;;;;;;20.75;16.50;;;;;7.77;85.21;100457.50;4969850;28;45609;-87
2021/12/05 18:56:21;;;;;;;;;21.75;17.75;;;;;7.83;85.52;100468.25;4953988;28;45517;-85
2021/12/05 18:58:47;;;;;;;;;18.75;17.00;;;;;7.77;85.51;100457.50;4958035;28;47207;-85
2021/12/05 19:04:26;;;;;;;;;19.50;15.50;;;;;7.77;84.85;100461.81;4974986;28;45404;-85
2021/12/05 19:07:03;;;;;;;;;12.00;11.00;;;;;7.76;84.90;100468.75;4973886;28;45529;-85
2021/12/05 19:11:40;;;;;;;;;17.75;16.50;;;;;7.76;85.34;100473.06;4961732;28;45529;-85
2021/12/05 19:12:25;;;;;;;;;13.00;13.00;;;;;7.77;84.70;100483.63;4969425;28;45525;-86
2021/12/05 19:14:55;;;;;;;;;12.75;12.75;;;;;7.78;84.77;100474.94;4978608;28;45831;-85
2021/12/05 19:17:29;;;;;;;;;17.00;14.50;;;;;7.65;85.23;100460.38;4972186;28;45420;-86
2021/12/05 19:19:59;;;;;;;;;17.67;15.00;;;;;7.74;85.47;100480.84;4973309;28;45489;-86
2021/12/05 19:22:31;;;;;;;;;17.50;17.25;;;;;7.74;85.35;100483.47;4955778;28;45452;-88
2021/12/05 19:24:59;;;;;;;;;19.25;15.00;;;;;7.77;85.81;100486.25;4946700;28;45366;-86
2021/12/05 19:27:25;;;;;;;;;23.75;19.50;;;;;7.79;85.69;100492.44;4980593;28;45396;-85
2021/12/05 19:29:51;;;;;;;;;19.50;16.25;;;;;7.82;85.49;100489.09;4974785;28;45592;-84
2021/12/05 19:32:19;;;;;;;;;20.00;15.33;;;;;7.85;85.23;100498.81;4955744;28;45951;-85
2021/12/05 19:34:44;;;;;;;;;13.33;13.33;;;;;7.77;85.39;100490.56;4979976;28;45951;-84
2021/12/05 19:37:10;;;;;;;;;17.00;14.00;;;;;7.81;85.46;100506.47;4979124;28;45814;-85
2021/12/05 19:39:36;;;;;;;;;15.75;13.50;;;;;7.79;85.20;100504.59;4974466;28;46448;-85
2021/12/05 19:42:04;;;;;;;;;13.00;13.00;;;;;7.79;84.99;100496.75;4960777;28;45588;-85
2021/12/05 19:44:30;;;;;;;;;14.50;14.00;;;;;7.83;84.83;100515.28;4966671;28;45428;-85
2021/12/05 19:46:57;;;;;;;;;13.67;12.67;;;;;7.81;85.51;100519.53;4977059;28;45536;-85
2021/12/05 19:49:23;;;;;;;;;14.33;13.00;;;;;7.77;85.30;100517.59;4969033;28;46657;-86
2021/12/05 19:51:50;;;;;;;;;11.67;10.00;;;;;7.79;84.51;100521.19;4971976;28;45469;-86
2021/12/05 19:54:16;;;;;;;;;13.33;11.00;;;;;7.81;84.64;100524.78;4955063;28;47639;-85
2021/12/05 19:56:44;;;;;;;;;12.00;9.33;;;;;7.78;84.85;100518.50;4973029;28;45391;-86
2021/12/05 19:59:13;;;;;;;;;10.67;8.67;;;;;7.75;85.31;100516.63;4955866;28;47123;-85
2021/12/05 20:01:39;;;;;;;;;12.33;10.33;;;;;7.77;84.46;100529.75;4949304;28;45510;-85
2021/12/05 20:04:05;;;;;;;;;12.67;9.00;;;;;7.73;84.90;100523.47;4976276;28;45487;-85
2021/12/05 20:06:33;;;;;;;;;14.33;10.00;;;;;7.70;84.31;100523.31;4993504;28;45493;-85
2021/12/05 20:08:59;;;;;;;;;13.67;11.33;;;;;7.69;83.50;100527.63;4964428;28;47126;-86
2021/12/05 20:11:25;;;;;;;;;13.33;10.00;;;;;7.64;84.84;100530.81;4976898;28;45857;-87
2021/12/05 21:12:46;;;;;;;;;12.33;10.00;;;;;7.65;84.93;100627.59;6113472;22;46294;-96
2021/12/05 23:04:52;;;;;;;;;2.00;2.00;;;;;7.45;83.71;100788.38;6097943;22;46025;31
